Lodz, Poland

1:00 AM CET on March 02, 2015 (GMT +0100)
Lublinek | Change Station
CLOSE
Current Station
Airport
Location: Lublinek,
Elevation: 604 ft
Nearby Weather Stations

Elev 604 ft 51.72 °N, 19.40 °E | Updated 30 minutes ago

Mostly Cloudy
Mostly Cloudy
39 °F
Feels Like 33 °F
N
9
Wind Variable Wind from SW

Today
High -- | Low -- °F
--% Chance of Precip.
Yesterday
High -- | Low -- °F
Precip. -- in
6:26 AM 5:23 PM
Waxing Gibbous, 88% visible
Pressure 29.65 in
Visibility 6.2 miles
Clouds Mostly Cloudy 2700 ft
Windchill 33 °F
Dew Point 36 °F
Humidity 87%
Rainfall 0.00 in
Snow Depth Not available.
UV 0 out of 12
Pollen Not available.
Air Quality Not available.
Flu Activity Not available.
METAR EPLL 012330Z 23008KT 9999 BKN027 04/02 Q1004

More Conditions Fewer Conditions

Pressure 29.65 in
Visibility 6.2 miles
Clouds Mostly Cloudy 2700 ft
Windchill 33 °F
Dew Point 36 °F
Humidity 87%
Rainfall 0.00 in
Snow Depth Not available.
UV 0 out of 12
Pollen Not available.
Air Quality Not available.
Flu Activity Not available.
METAR EPLL 012330Z 23008KT 9999 BKN027 04/02 Q1004

More Conditions Fewer Conditions

10-Day Weather Forecast

Almanac

Astronomy

Mar. 02, 2015 Rise Set
Actual Time
Civil Twilight
Nautical Twilight
Astronomical Twilight
Moon
Length of Visible Light
Length of Day
Tomorrow will be .
, % of the Moon is Illuminated

Today's Extremes

Country Highs Country Lows

Community

WunderPhotos

Upload Photos

1,801,634 photos uploaded!

WunderBlogs® & News

Nearby

Air Quality

  Air Quality AQ Index Pollutant
Not available.

Snow Depth

Station Depth Elevation

Earthquake Activity

City Distance Mag. Time & Date
Minimum magnitude displayed is 2.5.

Coastal Water Temperatures

Place Temperature

Nearby Weather Stations